Time,TemperatureF,DewpointF,PressureIn,WindDirection,WindDirectionDegrees,WindSpeedMPH,WindSpeedGustMPH,Humidity,HourlyPrecipIn,Conditions,Clouds,dailyrainin,SoftwareType,DateUTC
2013-07-23 00:02:00,54.9,54.5,30.23,WSW,248,0.0,0.0,99,0.00,,,0.02,meteohub,2013-07-23 07:02:00,
2013-07-23 00:07:00,54.5,54.1,30.23,WSW,248,2.0,2.0,99,0.00,,,0.02,meteohub,2013-07-23 07:07:00,
2013-07-23 00:12:00,54.1,53.8,30.23,WSW,248,1.0,2.0,99,0.00,,,0.00,meteohub,2013-07-23 07:12:00,
2013-07-23 00:17:00,54.1,53.8,30.23,WSW,248,1.0,2.0,99,0.00,,,0.00,meteohub,2013-07-23 07:17:00,
2013-07-23 00:22:00,54.1,53.8,30.23,WSW,248,0.0,2.0,99,0.00,,,0.00,meteohub,2013-07-23 07:22:00,
2013-07-23 00:27:00,54.3,54.0,30.23,WSW,248,0.0,2.0,99,0.00,,,0.00,meteohub,2013-07-23 07:27:00,
2013-07-23 00:32:00,54.3,54.0,30.22,WSW,248,2.0,2.0,99,0.00,,,0.00,meteohub,2013-07-23 07:32:00,
2013-07-23 00:37:00,54.1,53.8,30.22,WSW,248,0.0,1.0,99,0.00,,,0.00,meteohub,2013-07-23 07:37:00,
2013-07-23 00:42:00,54.1,53.8,30.22,WSW,248,2.0,2.0,99,0.01,,,0.00,meteohub,2013-07-23 07:42:00,
2013-07-23 00:47:00,54.0,53.6,30.22,WSW,248,2.0,2.0,99,0.01,,,0.01,meteohub,2013-07-23 07:47:00,
2013-07-23 00:52:00,53.6,53.2,30.22,WSW,248,0.0,2.0,99,0.01,,,0.01,meteohub,2013-07-23 07:52:00,
2013-07-23 00:57:00,53.4,53.1,30.22,WSW,248,0.0,2.0,99,0.01,,,0.01,meteohub,2013-07-23 07:57:00,
2013-07-23 01:02:00,53.4,53.1,30.23,WSW,248,1.0,2.0,99,0.01,,,0.01,meteohub,2013-07-23 08:02:00,
2013-07-23 01:07:00,53.4,53.1,30.22,WSW,248,1.0,2.0,99,0.01,,,0.01,meteohub,2013-07-23 08:07:00,
2013-07-23 01:12:00,53.1,52.7,30.22,WSW,248,0.0,2.0,99,0.01,,,0.01,meteohub,2013-07-23 08:12:00,
2013-07-23 01:17:00,52.9,52.5,30.22,WSW,248,0.0,2.0,99,0.01,,,0.01,meteohub,2013-07-23 08:17:00,
2013-07-23 01:22:00,52.9,52.5,30.22,WSW,248,2.0,2.0,99,0.01,,,0.01,meteohub,2013-07-23 08:22:00,
2013-07-23 01:27:00,52.9,52.5,30.22,WSW,248,1.0,2.0,99,0.01,,,0.01,meteohub,2013-07-23 08:27:00,
2013-07-23 01:32:00,52.9,52.5,30.22,WSW,248,0.0,2.0,99,0.01,,,0.01,meteohub,2013-07-23 08:32:00,
2013-07-23 01:37:00,52.7,52.3,30.22,WSW,248,1.0,2.0,99,0.01,,,0.01,meteohub,2013-07-23 08:37:00,
2013-07-23 01:42:00,52.7,52.3,30.21,WSW,248,1.0,2.0,99,0.00,,,0.01,meteohub,2013-07-23 08:42:00,
2013-07-23 01:47:00,52.7,52.3,30.21,WSW,248,0.0,2.0,99,0.00,,,0.01,meteohub,2013-07-23 08:47:00,
2013-07-23 01:52:00,52.7,52.3,30.21,WSW,248,0.0,2.0,99,0.00,,,0.01,meteohub,2013-07-23 08:52:00,
2013-07-23 01:57:00,52.5,52.2,30.22,WSW,248,0.0,2.0,99,0.00,,,0.01,meteohub,2013-07-23 08:57:00,
2013-07-23 02:02:00,52.5,52.2,30.22,WSW,248,0.0,2.0,99,0.00,,,0.01,meteohub,2013-07-23 09:02:00,
2013-07-23 02:07:00,52.5,52.2,30.21,WSW,248,0.0,0.0,99,0.00,,,0.01,meteohub,2013-07-23 09:07:00,
2013-07-23 02:12:00,52.3,52.0,30.22,WSW,248,0.0,0.0,99,0.00,,,0.01,meteohub,2013-07-23 09:12:00,
2013-07-23 02:17:00,52.3,52.0,30.22,WSW,248,0.0,0.0,99,0.00,,,0.01,meteohub,2013-07-23 09:17:00,
2013-07-23 02:22:00,52.3,52.0,30.22,WSW,248,0.0,0.0,99,0.00,,,0.01,meteohub,2013-07-23 09:22:00,
2013-07-23 02:27:00,52.3,52.0,30.22,WSW,248,0.0,0.0,99,0.00,,,0.01,meteohub,2013-07-23 09:27:00,
2013-07-23 02:32:00,52.2,51.8,30.22,WSW,248,0.0,0.0,99,0.00,,,0.01,meteohub,2013-07-23 09:32:00,
2013-07-23 02:37:00,52.0,51.6,30.22,WSW,248,1.0,0.0,99,0.00,,,0.01,meteohub,2013-07-23 09:37:00,
2013-07-23 02:42:00,51.8,51.4,30.21,WSW,248,1.0,1.0,99,0.00,,,0.01,meteohub,2013-07-23 09:42:00,
2013-07-23 02:47:00,51.6,51.3,30.21,WSW,248,0.0,1.0,99,0.00,,,0.01,meteohub,2013-07-23 09:47:00,
2013-07-23 02:48:00,51.6,51.3,30.21,WSW,248,0.0,1.0,99,0.00,,,0.01,meteohub,2013-07-23 09:48:00,
2013-07-23 02:53:00,51.4,51.1,30.22,WSW,248,0.0,2.0,99,0.00,,,0.01,meteohub,2013-07-23 09:53:00,
2013-07-23 02:58:00,51.4,51.1,30.22,WSW,248,0.0,2.0,99,0.00,,,0.01,meteohub,2013-07-23 09:58:00,
2013-07-23 03:03:00,51.4,51.1,30.22,WSW,248,1.0,2.0,99,0.00,,,0.01,meteohub,2013-07-23 10:03:00,
2013-07-23 03:08:00,51.6,51.3,30.21,WSW,248,0.0,1.0,99,0.00,,,0.01,meteohub,2013-07-23 10:08:00,
2013-07-23 03:13:00,51.6,51.3,30.22,WSW,248,1.0,1.0,99,0.00,,,0.01,meteohub,2013-07-23 10:13:00,
2013-07-23 03:18:00,51.6,51.3,30.22,WSW,248,0.0,1.0,99,0.00,,,0.01,meteohub,2013-07-23 10:18:00,
2013-07-23 03:23:00,51.4,51.1,30.22,WSW,248,0.0,1.0,99,0.00,,,0.01,meteohub,2013-07-23 10:23:00,
2013-07-23 03:28:00,51.4,51.1,30.22,WSW,248,0.0,1.0,99,0.00,,,0.01,meteohub,2013-07-23 10:28:00,
2013-07-23 03:33:00,51.4,51.1,30.22,WSW,248,0.0,1.0,99,0.00,,,0.01,meteohub,2013-07-23 10:33:00,
2013-07-23 03:38:00,51.4,51.1,30.22,WSW,248,0.0,1.0,99,0.00,,,0.01,meteohub,2013-07-23 10:38:00,
2013-07-23 03:43:00,51.4,51.1,30.22,WSW,248,0.0,0.0,99,0.00,,,0.01,meteohub,2013-07-23 10:43:00,
2013-07-23 03:48:00,51.3,50.9,30.22,WSW,248,0.0,0.0,99,0.00,,,0.01,meteohub,2013-07-23 10:48:00,
2013-07-23 03:53:00,51.3,50.9,30.22,WSW,248,0.0,0.0,99,0.00,,,0.01,meteohub,2013-07-23 10:53:00,
2013-07-23 03:58:00,51.1,50.7,30.22,WSW,248,0.0,0.0,99,0.00,,,0.01,meteohub,2013-07-23 10:58:00,
2013-07-23 04:03:00,51.1,50.7,30.22,WSW,248,1.0,0.0,99,0.00,,,0.01,meteohub,2013-07-23 11:03:00,
2013-07-23 04:08:00,50.9,50.5,30.22,WSW,248,0.0,2.0,99,0.00,,,0.01,meteohub,2013-07-23 11:08:00,
2013-07-23 04:13:00,50.7,50.4,30.22,WSW,248,0.0,2.0,99,0.00,,,0.01,meteohub,2013-07-23 11:13:00,
2013-07-23 04:18:00,50.5,50.2,30.22,WSW,248,0.0,2.0,99,0.00,,,0.01,meteohub,2013-07-23 11:18:00,
2013-07-23 04:23:00,50.5,50.2,30.22,WSW,248,2.0,2.0,99,0.00,,,0.01,meteohub,2013-07-23 11:23:00,
2013-07-23 04:28:00,50.5,50.2,30.23,WSW,248,2.0,2.0,99,0.00,,,0.01,meteohub,2013-07-23 11:28:00,
2013-07-23 04:33:00,50.5,50.2,30.22,North,-999,-999.0,2.0,99,0.00,,,0.01,meteohub,2013-07-23 11:33:00,
2013-07-23 04:38:00,50.4,50.0,30.22,North,-999,-999.0,2.0,99,0.00,,,0.01,meteohub,2013-07-23 11:38:00,
2013-07-23 04:43:00,50.4,50.0,30.22,North,-999,-999.0,-999.0,99,0.00,,,0.01,meteohub,2013-07-23 11:43:00,
2013-07-23 04:48:00,50.4,50.0,30.22,North,-999,-999.0,-999.0,99,0.00,,,0.01,meteohub,2013-07-23 11:48:00,
2013-07-23 04:53:00,50.4,50.0,30.22,North,-999,-999.0,-999.0,99,0.00,,,0.01,meteohub,2013-07-23 11:53:00,
2013-07-23 04:58:00,50.5,50.2,30.22,North,-999,-999.0,-999.0,99,0.00,,,0.01,meteohub,2013-07-23 11:58:00,
2013-07-23 05:03:00,50.7,50.4,30.22,North,-999,-999.0,-999.0,99,0.00,,,0.01,meteohub,2013-07-23 12:03:00,
2013-07-23 05:08:00,50.7,50.4,30.22,North,-999,-999.0,-999.0,99,0.00,,,0.01,meteohub,2013-07-23 12:08:00,
2013-07-23 05:13:00,50.7,50.4,30.22,North,-999,-999.0,-999.0,99,0.00,,,0.01,meteohub,2013-07-23 12:13:00,
2013-07-23 05:18:00,50.4,50.0,30.23,North,-999,-999.0,-999.0,99,0.00,,,0.01,meteohub,2013-07-23 12:18:00,
2013-07-23 05:24:00,50.2,49.8,30.22,North,-999,-999.0,-999.0,99,0.00,,,0.01,meteohub,2013-07-23 12:24:00,
2013-07-23 05:29:00,50.2,49.8,30.22,North,-999,-999.0,-999.0,99,0.00,,,0.01,meteohub,2013-07-23 12:29:00,
2013-07-23 05:34:00,50.0,49.6,30.22,North,-999,-999.0,-999.0,99,0.00,,,0.01,meteohub,2013-07-23 12:34:00,
2013-07-23 05:39:00,50.0,49.6,30.22,North,-999,-999.0,-999.0,99,0.00,,,0.01,meteohub,2013-07-23 12:39:00,
2013-07-23 05:44:00,50.2,49.8,30.22,North,-999,-999.0,-999.0,99,0.00,,,0.01,meteohub,2013-07-23 12:44:00,
2013-07-23 05:49:00,50.2,49.8,30.23,North,-999,-999.0,-999.0,99,0.00,,,0.01,meteohub,2013-07-23 12:49:00,
2013-07-23 05:54:00,50.2,49.8,30.23,North,-999,-999.0,-999.0,99,0.00,,,0.01,meteohub,2013-07-23 12:54:00,
2013-07-23 05:59:00,50.0,49.6,30.23,North,-999,-999.0,-999.0,99,0.00,,,0.01,meteohub,2013-07-23 12:59:00,
2013-07-23 06:04:00,50.2,49.8,30.23,North,-999,-999.0,-999.0,99,0.00,,,0.01,meteohub,2013-07-23 13:04:00,
2013-07-23 06:09:00,50.2,49.8,30.23,North,-999,-999.0,-999.0,99,0.00,,,0.01,meteohub,2013-07-23 13:09:00,
2013-07-23 06:14:00,50.0,49.6,30.23,North,-999,-999.0,-999.0,99,0.00,,,0.01,meteohub,2013-07-23 13:14:00,
2013-07-23 06:19:00,50.2,49.8,30.23,North,-999,-999.0,-999.0,99,0.00,,,0.01,meteohub,2013-07-23 13:19:00,
2013-07-23 06:24:00,50.0,49.6,30.23,North,-999,-999.0,-999.0,99,0.00,,,0.01,meteohub,2013-07-23 13:24:00,
2013-07-23 06:29:00,50.0,49.6,30.24,North,-999,-999.0,-999.0,99,0.00,,,0.01,meteohub,2013-07-23 13:29:00,
2013-07-23 06:34:00,50.4,50.0,30.23,North,-999,-999.0,-999.0,99,0.00,,,0.01,meteohub,2013-07-23 13:34:00,
2013-07-23 06:39:00,51.1,50.7,30.23,North,-999,-999.0,-999.0,99,0.00,,,0.01,meteohub,2013-07-23 13:39:00,
2013-07-23 06:44:00,51.8,51.4,30.23,North,-999,-999.0,-999.0,99,0.00,,,0.01,meteohub,2013-07-23 13:44:00,
2013-07-23 06:49:00,52.7,52.3,30.23,East,90,2.0,-999.0,99,0.00,,,0.01,meteohub,2013-07-23 13:49:00,
2013-07-23 06:54:00,53.4,53.1,30.23,East,90,1.0,3.0,99,0.00,,,0.01,meteohub,2013-07-23 13:54:00,
2013-07-23 06:59:00,54.1,53.8,30.23,East,90,1.0,3.0,99,0.00,,,0.01,meteohub,2013-07-23 13:59:00,
2013-07-23 07:04:00,54.5,54.1,30.22,East,90,0.0,3.0,99,0.00,,,0.01,meteohub,2013-07-23 14:04:00,
2013-07-23 07:09:00,55.0,54.7,30.22,East,90,1.0,2.0,99,0.00,,,0.01,meteohub,2013-07-23 14:09:00,
2013-07-23 07:14:00,55.6,55.2,30.23,East,90,2.0,2.0,99,0.00,,,0.01,meteohub,2013-07-23 14:14:00,
2013-07-23 07:19:00,55.6,55.2,30.22,East,90,2.0,2.0,99,0.00,,,0.01,meteohub,2013-07-23 14:19:00,
2013-07-23 07:24:00,55.9,55.6,30.22,WSW,248,2.0,3.0,99,0.00,,,0.01,meteohub,2013-07-23 14:24:00,
2013-07-23 07:29:00,56.1,55.8,30.22,WSW,248,0.0,3.0,99,0.00,,,0.01,meteohub,2013-07-23 14:29:00,
2013-07-23 07:37:00,57.2,56.8,30.23,WSW,248,1.0,3.0,99,0.00,,,0.01,meteohub,2013-07-23 14:37:00,
2013-07-23 07:42:00,58.3,57.9,30.23,WSW,248,1.0,3.0,99,0.00,,,0.01,meteohub,2013-07-23 14:42:00,
2013-07-23 07:47:00,59.4,59.0,30.23,East,90,3.0,3.0,99,0.00,,,0.01,meteohub,2013-07-23 14:47:00,
2013-07-23 07:52:00,59.9,59.5,30.23,East,90,2.0,2.0,99,0.00,,,0.01,meteohub,2013-07-23 14:52:00,
2013-07-23 07:57:00,60.6,60.3,30.23,East,90,2.0,3.0,99,0.00,,,0.01,meteohub,2013-07-23 14:57:00,
2013-07-23 08:02:00,61.2,60.8,30.23,East,90,2.0,3.0,99,0.00,,,0.01,meteohub,2013-07-23 15:02:00,
2013-07-23 08:07:00,61.9,61.5,30.24,East,90,2.0,3.0,99,0.00,,,0.01,meteohub,2013-07-23 15:07:00,
2013-07-23 08:12:00,62.1,61.7,30.24,East,90,1.0,3.0,99,0.00,,,0.01,meteohub,2013-07-23 15:12:00,
2013-07-23 08:17:00,62.6,62.2,30.24,East,90,1.0,3.0,99,0.00,,,0.01,meteohub,2013-07-23 15:17:00,
2013-07-23 08:22:00,63.0,62.6,30.24,East,90,2.0,2.0,99,0.00,,,0.01,meteohub,2013-07-23 15:22:00,
2013-07-23 08:27:00,63.3,63.0,30.24,North,-999,-999.0,2.0,99,0.00,,,0.01,meteohub,2013-07-23 15:27:00,
2013-07-23 08:32:00,63.9,63.0,30.24,North,-999,-999.0,2.0,97,0.00,,,0.01,meteohub,2013-07-23 15:32:00,
2013-07-23 08:37:00,64.6,62.8,30.24,North,-999,-999.0,2.0,94,0.00,,,0.01,meteohub,2013-07-23 15:37:00,
2013-07-23 08:42:00,64.9,62.2,30.24,North,-999,-999.0,-999.0,91,0.00,,,0.01,meteohub,2013-07-23 15:42:00,
2013-07-23 08:47:00,65.3,61.7,30.24,North,-999,-999.0,-999.0,88,0.00,,,0.01,meteohub,2013-07-23 15:47:00,
2013-07-23 08:52:00,66.0,62.1,30.24,North,-999,-999.0,-999.0,87,0.00,,,0.01,meteohub,2013-07-23 15:52:00,
2013-07-23 08:57:00,66.7,61.7,30.24,North,-999,-999.0,-999.0,84,0.00,,,0.01,meteohub,2013-07-23 15:57:00,
2013-07-23 09:02:00,66.9,60.6,30.24,North,-999,-999.0,-999.0,80,0.00,,,0.01,meteohub,2013-07-23 16:02:00,
2013-07-23 09:07:00,67.6,61.5,30.24,East,90,4.0,-999.0,81,0.00,,,0.01,meteohub,2013-07-23 16:07:00,
2013-07-23 09:12:00,68.2,61.0,30.24,North,0,5.0,-999.0,78,0.00,,,0.01,meteohub,2013-07-23 16:12:00,
2013-07-23 09:17:00,68.4,60.8,30.24,North,0,3.0,5.0,77,0.00,,,0.01,meteohub,2013-07-23 16:17:00,
2013-07-23 09:22:00,68.5,60.3,30.25,North,0,3.0,5.0,75,0.00,,,0.01,meteohub,2013-07-23 16:22:00,
2013-07-23 09:27:00,69.4,61.5,30.24,NE,45,3.0,5.0,76,0.00,,,0.01,meteohub,2013-07-23 16:27:00,
2013-07-23 09:32:00,70.2,61.2,30.24,East,90,2.0,4.0,73,0.00,,,0.01,meteohub,2013-07-23 16:32:00,
2013-07-23 09:37:00,70.7,61.7,30.24,East,90,2.0,4.0,73,0.00,,,0.01,meteohub,2013-07-23 16:37:00,
2013-07-23 09:42:00,71.4,61.5,30.24,East,90,4.0,4.0,71,0.00,,,0.01,meteohub,2013-07-23 16:42:00,
2013-07-23 09:47:00,72.0,61.2,30.24,ENE,68,4.0,4.0,69,0.00,,,0.01,meteohub,2013-07-23 16:47:00,
2013-07-23 09:52:00,72.0,60.8,30.25,NE,45,2.0,4.0,68,0.00,,,0.01,meteohub,2013-07-23 16:52:00,
2013-07-23 09:57:00,72.5,61.0,30.25,South,180,3.0,4.0,67,0.00,,,0.01,meteohub,2013-07-23 16:57:00,
2013-07-23 10:02:00,72.9,60.8,30.24,South,180,2.0,4.0,66,0.00,,,0.01,meteohub,2013-07-23 17:02:00,
2013-07-23 10:07:00,72.5,60.1,30.25,South,180,2.0,4.0,65,0.00,,,0.01,meteohub,2013-07-23 17:07:00,
2013-07-23 10:12:00,71.6,59.7,30.25,South,180,1.0,3.0,66,0.00,,,0.01,meteohub,2013-07-23 17:12:00,
2013-07-23 10:17:00,70.9,59.0,30.25,South,180,1.0,3.0,66,0.00,,,0.01,meteohub,2013-07-23 17:17:00,
2013-07-23 10:22:00,70.3,58.8,30.25,South,180,2.0,3.0,67,0.00,,,0.01,meteohub,2013-07-23 17:22:00,
2013-07-23 10:27:00,71.2,59.4,30.25,South,180,2.0,3.0,66,0.00,,,0.01,meteohub,2013-07-23 17:27:00,
2013-07-23 10:32:00,72.5,60.4,30.25,South,180,2.0,3.0,66,0.00,,,0.01,meteohub,2013-07-23 17:32:00,
2013-07-23 10:37:00,72.9,59.9,30.25,East,90,2.0,3.0,64,0.00,,,0.01,meteohub,2013-07-23 17:37:00,
2013-07-23 10:42:00,72.5,59.5,30.25,West,270,3.0,3.0,64,0.00,,,0.01,meteohub,2013-07-23 17:42:00,
2013-07-23 10:47:00,72.3,59.0,30.25,North,0,3.0,3.0,63,0.00,,,0.01,meteohub,2013-07-23 17:47:00,
2013-07-23 10:52:00,71.6,58.8,30.25,NE,45,2.0,4.0,64,0.00,,,0.01,meteohub,2013-07-23 17:52:00,
2013-07-23 10:57:00,71.1,58.6,30.25,SW,225,3.0,4.0,65,0.00,,,0.01,meteohub,2013-07-23 17:57:00,
2013-07-23 11:02:00,70.3,58.8,30.25,East,90,2.0,4.0,67,0.00,,,0.01,meteohub,2013-07-23 18:02:00,
2013-07-23 11:07:00,70.0,59.4,30.25,East,90,2.0,4.0,69,0.00,,,0.01,meteohub,2013-07-23 18:07:00,
2013-07-23 11:12:00,70.0,59.4,30.25,NE,45,2.0,4.0,69,0.00,,,0.01,meteohub,2013-07-23 18:12:00,
2013-07-23 11:17:00,70.9,60.6,30.25,SW,225,3.0,3.0,70,0.00,,,0.01,meteohub,2013-07-23 18:17:00,
2013-07-23 11:22:00,72.9,60.8,30.25,SSE,158,2.0,4.0,66,0.00,,,0.01,meteohub,2013-07-23 18:22:00,
2013-07-23 11:27:00,74.7,61.2,30.25,SSE,158,4.0,4.0,63,0.00,,,0.01,meteohub,2013-07-23 18:27:00,
2013-07-23 11:32:00,75.7,61.9,30.25,SE,135,4.0,4.0,62,0.00,,,0.01,meteohub,2013-07-23 18:32:00,
2013-07-23 11:37:00,76.5,62.1,30.25,East,90,2.0,4.0,61,0.00,,,0.01,meteohub,2013-07-23 18:37:00,
2013-07-23 11:42:00,75.6,60.3,30.25,West,270,3.0,4.0,59,0.00,,,0.01,meteohub,2013-07-23 18:42:00,
2013-07-23 11:47:00,73.6,59.4,30.25,West,270,2.0,4.0,61,0.00,,,0.01,meteohub,2013-07-23 18:47:00,
2013-07-23 11:53:00,72.0,58.3,30.25,West,270,1.0,4.0,62,0.00,,,0.01,meteohub,2013-07-23 18:53:00,
2013-07-23 11:58:00,71.2,58.5,30.24,West,270,1.0,4.0,64,0.00,,,0.01,meteohub,2013-07-23 18:58:00,
2013-07-23 12:03:00,71.1,58.6,30.25,West,270,3.0,4.0,65,0.00,,,0.01,meteohub,2013-07-23 19:03:00,
2013-07-23 12:08:00,70.7,58.8,30.24,SSE,158,3.0,4.0,66,0.00,,,0.01,meteohub,2013-07-23 19:08:00,
2013-07-23 12:13:00,70.9,59.0,30.25,SSE,158,2.0,3.0,66,0.00,,,0.01,meteohub,2013-07-23 19:13:00,
2013-07-23 12:18:00,71.2,57.9,30.25,West,270,2.0,3.0,63,0.00,,,0.01,meteohub,2013-07-23 19:18:00,
2013-07-23 12:24:00,71.6,58.8,30.25,East,90,2.0,3.0,64,0.00,,,0.01,meteohub,2013-07-23 19:24:00,
2013-07-23 12:30:00,71.6,58.8,30.25,NE,45,3.0,3.0,64,0.00,,,0.01,meteohub,2013-07-23 19:30:00,
2013-07-23 12:35:00,71.2,58.8,30.25,NE,45,4.0,4.0,65,0.00,,,0.01,meteohub,2013-07-23 19:35:00,
2013-07-23 12:40:00,70.5,58.6,30.25,East,90,4.0,4.0,66,0.00,,,0.01,meteohub,2013-07-23 19:40:00,
2013-07-23 12:45:00,69.8,57.9,30.25,SE,135,4.0,4.0,66,0.00,,,0.01,meteohub,2013-07-23 19:45:00,
2013-07-23 12:51:00,69.4,57.9,30.25,SE,135,2.0,4.0,67,0.00,,,0.01,meteohub,2013-07-23 19:51:00,
2013-07-23 12:56:00,69.1,57.7,30.25,East,90,7.0,7.0,67,0.00,,,0.01,meteohub,2013-07-23 19:56:00,
2013-07-23 13:01:00,68.7,57.7,30.25,West,270,2.0,8.0,68,0.00,,,0.01,meteohub,2013-07-23 20:01:00,
2013-07-23 13:06:00,68.5,57.9,30.25,North,0,3.0,8.0,69,0.00,,,0.01,meteohub,2013-07-23 20:06:00,
2013-07-23 13:11:00,68.5,57.9,30.25,SE,135,2.0,7.0,69,0.00,,,0.01,meteohub,2013-07-23 20:11:00,
2013-07-23 13:16:00,68.5,58.3,30.25,SE,135,2.0,5.0,70,0.00,,,0.01,meteohub,2013-07-23 20:16:00,
2013-07-23 13:21:00,68.7,58.1,30.25,SSE,158,2.0,4.0,69,0.00,,,0.01,meteohub,2013-07-23 20:21:00,
2013-07-23 13:26:00,68.7,58.5,30.25,SSE,158,2.0,4.0,70,0.00,,,0.01,meteohub,2013-07-23 20:26:00,
2013-07-23 13:32:00,68.5,58.3,30.25,SW,225,2.0,3.0,70,0.00,,,0.01,meteohub,2013-07-23 20:32:00,
2013-07-23 13:37:00,68.9,58.6,30.25,SW,225,2.0,3.0,70,0.00,,,0.01,meteohub,2013-07-23 20:37:00,
2013-07-23 13:42:00,69.1,58.1,30.25,SE,135,4.0,4.0,68,0.00,,,0.01,meteohub,2013-07-23 20:42:00,
2013-07-23 13:47:00,68.7,57.7,30.25,WSW,248,0.0,4.0,68,0.00,,,0.01,meteohub,2013-07-23 20:47:00,
2013-07-23 13:52:00,68.2,57.6,30.25,WSW,248,1.0,4.0,69,0.00,,,0.01,meteohub,2013-07-23 20:52:00,
2013-07-23 13:57:00,68.2,58.1,30.25,WSW,248,2.0,4.0,70,0.00,,,0.01,meteohub,2013-07-23 20:57:00,
2013-07-23 14:02:00,68.4,58.3,30.25,WSW,248,2.0,2.0,70,0.00,,,0.01,meteohub,2013-07-23 21:02:00,
2013-07-23 14:07:00,68.5,58.3,30.25,WSW,248,2.0,2.0,70,0.00,,,0.01,meteohub,2013-07-23 21:07:00,
2013-07-23 14:12:00,68.9,58.3,30.24,WSW,248,2.0,2.0,69,0.00,,,0.01,meteohub,2013-07-23 21:12:00,
2013-07-23 14:17:00,69.4,58.8,30.25,WSW,248,1.0,2.0,69,0.00,,,0.01,meteohub,2013-07-23 21:17:00,
2013-07-23 14:22:00,69.8,58.8,30.25,SSW,203,3.0,4.0,68,0.00,,,0.01,meteohub,2013-07-23 21:22:00,
2013-07-23 14:28:00,70.3,59.4,30.24,South,180,2.0,4.0,68,0.00,,,0.01,meteohub,2013-07-23 21:28:00,
2013-07-23 14:33:00,70.7,58.8,30.24,South,180,3.0,4.0,66,0.00,,,0.01,meteohub,2013-07-23 21:33:00,
2013-07-23 14:38:00,70.7,58.8,30.24,South,180,2.0,3.0,66,0.00,,,0.01,meteohub,2013-07-23 21:38:00,
2013-07-23 14:43:00,70.9,59.0,30.24,ESE,113,2.0,3.0,66,0.00,,,0.01,meteohub,2013-07-23 21:43:00,
2013-07-23 14:49:00,70.9,59.0,30.24,ESE,113,2.0,4.0,66,0.00,,,0.01,meteohub,2013-07-23 21:49:00,
2013-07-23 14:54:00,71.1,58.6,30.24,East,90,5.0,5.0,65,0.00,,,0.01,meteohub,2013-07-23 21:54:00,
2013-07-23 14:59:00,70.9,58.1,30.24,East,90,2.0,5.0,64,0.00,,,0.01,meteohub,2013-07-23 21:59:00,
2013-07-23 15:04:00,70.7,58.8,30.24,SE,135,2.0,5.0,66,0.00,,,0.01,meteohub,2013-07-23 22:04:00,
2013-07-23 15:09:00,71.6,59.2,30.24,SW,225,3.0,5.0,65,0.00,,,0.01,meteohub,2013-07-23 22:09:00,
2013-07-23 15:14:00,73.0,59.7,30.23,SW,225,2.0,5.0,63,0.00,,,0.01,meteohub,2013-07-23 22:14:00,
2013-07-23 15:19:00,73.6,59.7,30.23,SW,225,3.0,5.0,62,0.00,,,0.01,meteohub,2013-07-23 22:19:00,
2013-07-23 15:25:00,73.2,59.4,30.23,SE,135,1.0,5.0,62,0.00,,,0.01,meteohub,2013-07-23 22:25:00,
2013-07-23 15:30:00,73.0,59.2,30.23,SSW,203,2.0,4.0,62,0.00,,,0.01,meteohub,2013-07-23 22:30:00,
2013-07-23 15:36:00,73.2,59.4,30.23,East,90,2.0,3.0,62,0.00,,,0.01,meteohub,2013-07-23 22:36:00,
2013-07-23 15:41:00,73.6,60.3,30.23,SW,225,4.0,7.0,63,0.00,,,0.01,meteohub,2013-07-23 22:41:00,
2013-07-23 15:46:00,73.9,59.7,30.23,SW,225,2.0,7.0,61,0.00,,,0.01,meteohub,2013-07-23 22:46:00,
2013-07-23 15:51:00,73.8,59.0,30.23,North,0,2.0,7.0,60,0.00,,,0.01,meteohub,2013-07-23 22:51:00,
2013-07-23 15:56:00,73.0,58.8,30.23,North,0,0.0,7.0,61,0.00,,,0.01,meteohub,2013-07-23 22:56:00,
2013-07-23 16:01:00,72.7,58.5,30.23,North,0,1.0,4.0,61,0.00,,,0.01,meteohub,2013-07-23 23:01:00,
2013-07-23 16:06:00,72.1,58.5,30.23,NE,45,2.0,4.0,62,0.00,,,0.01,meteohub,2013-07-23 23:06:00,
2013-07-23 16:11:00,72.1,58.8,30.23,NE,45,2.0,4.0,63,0.00,,,0.01,meteohub,2013-07-23 23:11:00,
2013-07-23 16:16:00,72.3,59.0,30.23,NE,45,0.0,4.0,63,0.00,,,0.01,meteohub,2013-07-23 23:16:00,
2013-07-23 16:21:00,72.5,58.8,30.22,NE,45,2.0,2.0,62,0.00,,,0.01,meteohub,2013-07-23 23:21:00,
2013-07-23 16:27:00,72.3,59.0,30.23,SW,225,2.0,2.0,63,0.00,,,0.01,meteohub,2013-07-23 23:27:00,
2013-07-23 16:32:00,71.6,58.3,30.23,North,0,1.0,3.0,63,0.00,,,0.01,meteohub,2013-07-23 23:32:00,
2013-07-23 16:37:00,71.6,58.3,30.22,NE,45,2.0,3.0,63,0.00,,,0.01,meteohub,2013-07-23 23:37:00,
2013-07-23 16:42:00,71.4,58.6,30.22,NE,45,2.0,4.0,64,0.00,,,0.01,meteohub,2013-07-23 23:42:00,
2013-07-23 16:47:00,72.3,59.0,30.22,NE,45,2.0,4.0,63,0.00,,,0.01,meteohub,2013-07-23 23:47:00,
2013-07-23 16:52:00,72.5,59.2,30.22,NE,45,2.0,4.0,63,0.00,,,0.01,meteohub,2013-07-23 23:52:00,
2013-07-23 16:57:00,72.7,58.8,30.22,West,270,3.0,4.0,62,0.00,,,0.01,meteohub,2013-07-23 23:57:00,
2013-07-23 17:02:00,73.4,58.6,30.22,East,90,4.0,4.0,60,0.00,,,0.01,meteohub,2013-07-24 00:02:00,
2013-07-23 17:07:00,73.9,58.6,30.22,East,90,6.0,6.0,59,0.00,,,0.01,meteohub,2013-07-24 00:07:00,
2013-07-23 17:12:00,74.5,59.7,30.22,East,90,3.0,6.0,60,0.00,,,0.01,meteohub,2013-07-24 00:12:00,
2013-07-23 17:17:00,74.7,58.8,30.22,East,90,2.0,6.0,58,0.00,,,0.01,meteohub,2013-07-24 00:17:00,
2013-07-23 17:22:00,74.5,58.3,30.22,SW,225,4.0,6.0,57,0.00,,,0.01,meteohub,2013-07-24 00:22:00,
2013-07-23 17:28:00,74.3,58.6,30.21,South,180,1.0,4.0,58,0.00,,,0.01,meteohub,2013-07-24 00:28:00,
2013-07-23 17:33:00,74.1,57.9,30.21,NE,45,4.0,4.0,57,0.00,,,0.01,meteohub,2013-07-24 00:33:00,
2013-07-23 17:38:00,73.6,57.9,30.21,South,180,2.0,4.0,58,0.00,,,0.01,meteohub,2013-07-24 00:38:00,
2013-07-23 17:44:00,73.2,58.1,30.21,South,180,2.0,4.0,59,0.00,,,0.01,meteohub,2013-07-24 00:44:00,
2013-07-23 17:49:00,72.9,57.7,30.22,SSW,203,3.0,4.0,59,0.00,,,0.01,meteohub,2013-07-24 00:49:00,
2013-07-23 17:54:00,73.0,57.9,30.21,SSW,203,2.0,4.0,59,0.00,,,0.01,meteohub,2013-07-24 00:54:00,
2013-07-23 17:59:00,72.7,57.6,30.21,North,0,2.0,4.0,59,0.00,,,0.01,meteohub,2013-07-24 00:59:00,
2013-07-23 18:04:00,72.1,57.6,30.21,North,0,2.0,4.0,60,0.00,,,0.01,meteohub,2013-07-24 01:04:00,
2013-07-23 18:10:00,71.8,57.6,30.21,SE,135,0.0,4.0,61,0.00,,,0.01,meteohub,2013-07-24 01:10:00,
2013-07-23 18:15:00,71.8,58.1,30.21,West,270,2.0,4.0,62,0.00,,,0.01,meteohub,2013-07-24 01:15:00,
2013-07-23 18:20:00,71.2,57.6,30.21,NE,45,2.0,2.0,62,0.00,,,0.01,meteohub,2013-07-24 01:20:00,
2013-07-23 18:25:00,70.9,57.2,30.21,East,90,4.0,4.0,62,0.00,,,0.01,meteohub,2013-07-24 01:25:00,
2013-07-23 18:30:00,70.3,56.7,30.21,East,90,1.0,4.0,62,0.00,,,0.01,meteohub,2013-07-24 01:30:00,
2013-07-23 18:35:00,70.0,56.3,30.21,East,90,2.0,4.0,62,0.00,,,0.01,meteohub,2013-07-24 01:35:00,
2013-07-23 18:40:00,69.6,56.5,30.21,East,90,2.0,4.0,63,0.00,,,0.01,meteohub,2013-07-24 01:40:00,
2013-07-23 18:45:00,69.3,56.5,30.21,East,90,0.0,2.0,64,0.00,,,0.01,meteohub,2013-07-24 01:45:00,
2013-07-23 18:50:00,68.9,56.7,30.22,East,90,2.0,2.0,65,0.00,,,0.01,meteohub,2013-07-24 01:50:00,
2013-07-23 18:55:00,68.4,56.1,30.21,East,90,2.0,2.0,65,0.00,,,0.01,meteohub,2013-07-24 01:55:00,
2013-07-23 19:00:00,68.0,56.3,30.22,East,90,2.0,2.0,66,0.00,,,0.01,meteohub,2013-07-24 02:00:00,
2013-07-23 19:05:00,67.6,56.3,30.22,East,90,0.0,2.0,67,0.00,,,0.01,meteohub,2013-07-24 02:05:00,
2013-07-23 19:10:00,67.5,56.1,30.21,East,90,1.0,2.0,67,0.00,,,0.01,meteohub,2013-07-24 02:10:00,
2013-07-23 19:17:00,67.3,56.3,30.22,East,90,0.0,3.0,68,0.00,,,0.01,meteohub,2013-07-24 02:17:00,
2013-07-23 19:22:00,67.1,56.7,30.22,East,90,0.0,3.0,69,0.00,,,0.01,meteohub,2013-07-24 02:22:00,
2013-07-23 19:27:00,66.9,56.5,30.22,East,90,0.0,3.0,69,0.00,,,0.01,meteohub,2013-07-24 02:27:00,
2013-07-23 19:32:00,66.6,56.5,30.22,East,90,0.0,0.0,70,0.00,,,0.01,meteohub,2013-07-24 02:32:00,
2013-07-23 19:37:00,66.2,56.5,30.22,East,90,0.0,1.0,71,0.00,,,0.01,meteohub,2013-07-24 02:37:00,
2013-07-23 19:42:00,65.7,56.3,30.22,East,90,0.0,1.0,72,0.00,,,0.01,meteohub,2013-07-24 02:42:00,
2013-07-23 19:47:00,65.1,55.9,30.22,East,90,1.0,1.0,72,0.00,,,0.01,meteohub,2013-07-24 02:47:00,
2013-07-23 19:52:00,64.9,56.1,30.22,East,90,0.0,2.0,73,0.00,,,0.01,meteohub,2013-07-24 02:52:00,
2013-07-23 19:57:00,64.6,55.8,30.22,East,90,0.0,2.0,73,0.00,,,0.01,meteohub,2013-07-24 02:57:00,
2013-07-23 20:02:00,64.0,55.6,30.22,East,90,0.0,2.0,74,0.00,,,0.01,meteohub,2013-07-24 03:02:00,
2013-07-23 20:07:00,63.3,55.2,30.22,East,90,0.0,0.0,75,0.00,,,0.01,meteohub,2013-07-24 03:07:00,
2013-07-23 20:12:00,63.0,55.2,30.22,East,90,1.0,2.0,76,0.00,,,0.01,meteohub,2013-07-24 03:12:00,
2013-07-23 20:17:00,62.4,55.0,30.22,East,90,1.0,2.0,77,0.00,,,0.01,meteohub,2013-07-24 03:17:00,
2013-07-23 20:22:00,61.9,54.9,30.23,East,90,1.0,2.0,78,0.00,,,0.01,meteohub,2013-07-24 03:22:00,
2013-07-23 20:28:00,61.9,55.2,30.23,East,90,0.0,2.0,79,0.00,,,0.01,meteohub,2013-07-24 03:28:00,
2013-07-23 20:33:00,61.7,55.0,30.23,East,90,1.0,2.0,79,0.00,,,0.01,meteohub,2013-07-24 03:33:00,
2013-07-23 20:40:00,61.7,55.4,30.23,East,90,2.0,2.0,80,0.00,,,0.01,meteohub,2013-07-24 03:40:00,
2013-07-23 20:45:00,61.3,55.0,30.23,East,90,0.0,2.0,80,0.00,,,0.01,meteohub,2013-07-24 03:45:00,
2013-07-23 20:50:00,61.2,54.9,30.23,East,90,0.0,2.0,80,0.00,,,0.01,meteohub,2013-07-24 03:50:00,
2013-07-23 20:55:00,61.0,55.0,30.24,East,90,2.0,2.0,81,0.00,,,0.01,meteohub,2013-07-24 03:55:00,
2013-07-23 21:00:00,60.6,54.7,30.24,East,90,0.0,2.0,81,0.00,,,0.01,meteohub,2013-07-24 04:00:00,
2013-07-23 21:01:00,60.6,54.7,30.24,East,90,0.0,2.0,81,0.00,,,0.01,meteohub,2013-07-24 04:01:00,
2013-07-23 21:02:00,60.6,54.7,30.24,East,90,1.0,2.0,81,0.00,,,0.01,meteohub,2013-07-24 04:02:00,
2013-07-23 21:07:00,60.4,54.9,30.24,East,90,0.0,2.0,82,0.00,,,0.01,meteohub,2013-07-24 04:07:00,
2013-07-23 21:12:00,60.3,54.7,30.25,East,90,0.0,2.0,82,0.00,,,0.01,meteohub,2013-07-24 04:12:00,
2013-07-23 21:17:00,60.1,54.9,30.25,East,90,0.0,2.0,83,0.00,,,0.01,meteohub,2013-07-24 04:17:00,
2013-07-23 21:22:00,60.1,54.9,30.25,East,90,2.0,2.0,83,0.00,,,0.01,meteohub,2013-07-24 04:22:00,
2013-07-23 21:27:00,59.9,54.7,30.25,East,90,0.0,2.0,83,0.00,,,0.01,meteohub,2013-07-24 04:27:00,
2013-07-23 21:32:00,59.7,54.5,30.25,East,90,1.0,2.0,83,0.00,,,0.01,meteohub,2013-07-24 04:32:00,
2013-07-23 21:37:00,59.5,54.7,30.25,East,90,1.0,2.0,84,0.00,,,0.01,meteohub,2013-07-24 04:37:00,
2013-07-23 21:42:00,59.4,54.5,30.25,East,90,2.0,2.0,84,0.00,,,0.01,meteohub,2013-07-24 04:42:00,
2013-07-23 21:47:00,59.2,54.3,30.25,East,90,2.0,2.0,84,0.00,,,0.01,meteohub,2013-07-24 04:47:00,
2013-07-23 21:52:00,59.0,54.5,30.25,East,90,2.0,2.0,85,0.00,,,0.01,meteohub,2013-07-24 04:52:00,
2013-07-23 21:57:00,58.8,54.3,30.25,East,90,0.0,2.0,85,0.00,,,0.01,meteohub,2013-07-24 04:57:00,
2013-07-23 22:02:00,58.6,54.5,30.25,East,90,2.0,2.0,86,0.00,,,0.01,meteohub,2013-07-24 05:02:00,
2013-07-23 22:07:00,58.5,54.3,30.25,East,90,0.0,2.0,86,0.00,,,0.01,meteohub,2013-07-24 05:07:00,
2013-07-23 22:12:00,58.3,54.1,30.25,East,90,0.0,2.0,86,0.00,,,0.01,meteohub,2013-07-24 05:12:00,
2013-07-23 22:17:00,58.3,54.1,30.25,East,90,0.0,2.0,86,0.00,,,0.01,meteohub,2013-07-24 05:17:00,
2013-07-23 22:22:00,58.1,54.3,30.25,East,90,0.0,2.0,87,0.00,,,0.01,meteohub,2013-07-24 05:22:00,
2013-07-23 22:27:00,57.9,54.1,30.25,East,90,0.0,2.0,87,0.00,,,0.01,meteohub,2013-07-24 05:27:00,
2013-07-23 22:32:00,57.7,54.0,30.25,East,90,1.0,2.0,87,0.00,,,0.01,meteohub,2013-07-24 05:32:00,
2013-07-23 22:37:00,57.4,53.8,30.25,East,90,1.0,1.0,88,0.00,,,0.01,meteohub,2013-07-24 05:37:00,
2013-07-23 22:42:00,57.4,53.8,30.25,East,90,0.0,1.0,88,0.00,,,0.01,meteohub,2013-07-24 05:42:00,
2013-07-23 22:47:00,57.0,53.4,30.25,East,90,0.0,1.0,88,0.00,,,0.01,meteohub,2013-07-24 05:47:00,
2013-07-23 22:52:00,56.8,53.6,30.25,East,90,0.0,1.0,89,0.00,,,0.01,meteohub,2013-07-24 05:52:00,
2013-07-23 22:57:00,56.8,53.6,30.25,East,90,1.0,1.0,89,0.00,,,0.01,meteohub,2013-07-24 05:57:00,
2013-07-23 23:02:00,57.0,53.8,30.25,East,90,0.0,1.0,89,0.00,,,0.01,meteohub,2013-07-24 06:02:00,
2013-07-23 23:07:00,56.8,53.6,30.25,East,90,0.0,1.0,89,0.00,,,0.01,meteohub,2013-07-24 06:07:00,
2013-07-23 23:12:00,56.8,54.0,30.25,East,90,0.0,1.0,90,0.00,,,0.01,meteohub,2013-07-24 06:12:00,
2013-07-23 23:17:00,56.7,53.8,30.25,East,90,0.0,1.0,90,0.00,,,0.01,meteohub,2013-07-24 06:17:00,
2013-07-23 23:22:00,56.5,53.6,30.25,East,90,0.0,1.0,90,0.00,,,0.01,meteohub,2013-07-24 06:22:00,
2013-07-23 23:27:00,56.3,53.4,30.25,East,90,0.0,1.0,90,0.00,,,0.01,meteohub,2013-07-24 06:27:00,
2013-07-23 23:32:00,56.3,53.4,30.25,East,90,0.0,1.0,90,0.00,,,0.01,meteohub,2013-07-24 06:32:00,
2013-07-23 23:37:00,56.1,53.2,30.25,East,90,0.0,1.0,90,0.00,,,0.01,meteohub,2013-07-24 06:37:00,
2013-07-23 23:42:00,55.9,53.1,30.25,East,90,0.0,0.0,90,0.00,,,0.01,meteohub,2013-07-24 06:42:00,
2013-07-23 23:47:00,55.8,53.2,30.25,East,90,2.0,0.0,91,0.00,,,0.01,meteohub,2013-07-24 06:47:00,
2013-07-23 23:52:00,55.8,53.2,30.25,East,90,0.0,2.0,91,0.00,,,0.01,meteohub,2013-07-24 06:52:00,
2013-07-23 23:57:00,55.6,53.1,30.25,East,90,0.0,2.0,91,0.00,,,0.01,meteohub,2013-07-24 06:57:00,